Time;durP1;ratioP1;P1;durP2;ratioP2;P2;SDS_P1;SDS_P2;PMS_P1;PMS_P2;Temp;Humidity;BMP_temperature;BMP_pressure;BME280_temperature;BME280_humidity;BME280_pressure;Samples;Min_cycle;Max_cycle;Signal;HPM_P1;HPM_P2
2024/02/03 00:01:26;;;;;;;9.37;5.53;;;9.00;99.90;;;;;;5059352;28;20428;-65
2024/02/03 00:03:55;;;;;;;9.40;6.13;;;9.00;99.90;;;;;;5059691;28;20528;-63
2024/02/03 00:06:22;;;;;;;11.10;5.67;;;9.00;99.90;;;;;;5059744;28;20454;-63
2024/02/03 00:08:49;;;;;;;8.57;5.20;;;8.90;99.90;;;;;;5059592;28;20494;-62
2024/02/03 00:11:19;;;;;;;9.00;6.67;;;8.90;99.90;;;;;;5058628;28;20452;-64
2024/02/03 00:13:46;;;;;;;7.00;4.40;;;9.00;99.90;;;;;;5060633;28;20455;-61
2024/02/03 00:16:14;;;;;;;6.60;4.73;;;9.00;99.90;;;;;;5059608;28;20478;-62
2024/02/03 00:18:41;;;;;;;7.27;4.53;;;9.00;99.90;;;;;;5059915;28;20885;-63
2024/02/03 00:21:10;;;;;;;9.27;5.70;;;8.90;99.90;;;;;;5059646;28;20450;-64
2024/02/03 00:23:39;;;;;;;6.77;5.07;;;8.90;99.90;;;;;;5059286;28;20500;-63
2024/02/03 00:26:06;;;;;;;7.77;3.60;;;8.90;99.90;;;;;;5059984;28;20483;-65
2024/02/03 00:28:33;;;;;;;8.93;5.60;;;8.90;99.90;;;;;;5059227;28;20755;-64
2024/02/03 00:31:00;;;;;;;10.73;5.00;;;9.00;99.90;;;;;;5060115;28;20504;-62
2024/02/03 00:33:30;;;;;;;9.80;5.13;;;9.00;99.90;;;;;;5056250;28;20444;-62
2024/02/03 00:35:57;;;;;;;9.20;5.43;;;9.00;99.90;;;;;;5040751;28;20494;-64
2024/02/03 00:38:24;;;;;;;9.70;5.80;;;9.00;99.90;;;;;;5044751;28;20572;-64
2024/02/03 00:40:51;;;;;;;7.90;5.30;;;9.00;99.90;;;;;;5028329;28;20525;-63
2024/02/03 00:43:18;;;;;;;10.47;5.13;;;9.00;99.90;;;;;;5032247;28;20491;-62
2024/02/03 00:45:45;;;;;;;9.47;5.13;;;9.00;99.90;;;;;;5026090;28;20534;-64
2024/02/03 00:48:12;;;;;;;9.77;6.47;;;9.00;99.90;;;;;;5018580;28;20511;-62
2024/02/03 00:50:47;;;;;;;9.90;5.70;;;9.00;99.90;;;;;;5021468;28;20440;-63
2024/02/03 00:53:14;;;;;;;21.13;7.00;;;9.00;99.90;;;;;;5022954;28;20869;-63
2024/02/03 00:55:41;;;;;;;9.87;5.30;;;9.10;99.90;;;;;;5027722;28;20524;-64
2024/02/03 00:58:08;;;;;;;8.13;3.63;;;9.10;99.90;;;;;;5016660;28;20935;-63
2024/02/03 01:00:35;;;;;;;7.70;4.90;;;9.10;99.90;;;;;;5018139;28;20460;-62
2024/02/03 01:03:02;;;;;;;8.63;5.10;;;9.10;99.90;;;;;;5024808;28;20470;-63
2024/02/03 01:05:29;;;;;;;7.43;4.87;;;9.10;99.90;;;;;;5028209;28;20467;-63
2024/02/03 01:07:57;;;;;;;10.00;5.27;;;9.10;99.90;;;;;;5033120;28;20445;-63
2024/02/03 01:10:26;;;;;;;7.80;5.23;;;9.10;99.90;;;;;;5024856;28;20483;-65
2024/02/03 01:12:54;;;;;;;7.00;4.50;;;9.10;99.90;;;;;;5031530;28;20455;-63
2024/02/03 01:15:21;;;;;;;6.33;4.10;;;9.20;99.90;;;;;;5024202;28;20464;-61
2024/02/03 01:17:49;;;;;;;9.70;6.77;;;9.20;99.90;;;;;;5026263;28;20482;-62
2024/02/03 01:20:16;;;;;;;6.97;4.57;;;9.20;99.90;;;;;;5020577;28;20444;-65
2024/02/03 01:22:43;;;;;;;8.27;4.27;;;9.20;99.90;;;;;;5015697;28;20905;-61
2024/02/03 01:25:12;;;;;;;10.07;5.20;;;9.30;99.90;;;;;;5015971;28;20471;-69
2024/02/03 01:27:39;;;;;;;7.80;4.57;;;9.20;99.90;;;;;;5016158;28;20477;-62
2024/02/03 01:30:07;;;;;;;6.13;4.50;;;9.20;99.90;;;;;;5015906;28;20473;-63
2024/02/03 01:32:34;;;;;;;7.77;4.10;;;9.30;99.90;;;;;;5015690;28;20516;-64
2024/02/03 01:35:01;;;;;;;8.57;5.50;;;9.20;99.90;;;;;;5015534;28;20932;-62
2024/02/03 01:37:28;;;;;;;5.60;4.00;;;9.20;99.90;;;;;;5015406;28;20485;-62
2024/02/03 01:39:55;;;;;;;5.07;4.13;;;9.30;99.90;;;;;;5015637;28;20469;-64
2024/02/03 01:42:24;;;;;;;7.17;4.80;;;9.30;99.90;;;;;;5016029;28;20465;-62
2024/02/03 01:44:51;;;;;;;9.07;6.10;;;9.30;99.90;;;;;;5015243;28;20496;-63
2024/02/03 01:47:18;;;;;;;6.23;4.13;;;9.30;99.90;;;;;;5015849;28;20458;-64
2024/02/03 01:49:47;;;;;;;7.67;5.13;;;9.40;99.90;;;;;;5015991;28;20471;-62
2024/02/03 01:52:14;;;;;;;9.87;5.23;;;9.40;99.90;;;;;;5015616;28;20522;-63
2024/02/03 01:54:43;;;;;;;7.33;4.60;;;9.50;99.90;;;;;;5016294;28;20445;-62
2024/02/03 01:57:10;;;;;;;7.73;4.33;;;9.50;99.90;;;;;;5015808;28;20745;-63
2024/02/03 01:59:39;;;;;;;8.27;5.63;;;9.50;99.90;;;;;;5015121;28;20519;-62
2024/02/03 02:02:06;;;;;;;9.40;5.73;;;9.50;99.90;;;;;;5015327;28;20470;-64
2024/02/03 02:04:33;;;;;;;10.33;4.90;;;9.50;99.90;;;;;;5015065;28;20441;-63
2024/02/03 02:07:01;;;;;;;6.33;4.63;;;9.50;99.90;;;;;;5020861;28;20472;-63
2024/02/03 02:09:29;;;;;;;10.00;6.20;;;9.60;99.90;;;;;;5025432;28;20471;-64
2024/02/03 02:12:02;;;;;;;7.73;4.87;;;9.60;99.90;;;;;;5035030;28;20924;-64
2024/02/03 02:14:29;;;;;;;8.33;5.50;;;9.60;99.90;;;;;;5034612;28;20858;-63
2024/02/03 02:16:58;;;;;;;8.70;4.53;;;9.60;99.90;;;;;;5034407;28;20443;-63
2024/02/03 02:19:25;;;;;;;7.63;4.87;;;9.70;99.90;;;;;;5034296;28;21099;-63
2024/02/03 02:21:53;;;;;;;6.13;4.37;;;9.70;99.90;;;;;;5027744;28;20456;-65
2024/02/03 02:24:20;;;;;;;5.93;4.20;;;9.70;99.90;;;;;;5026925;28;20517;-63
2024/02/03 02:26:47;;;;;;;7.83;4.73;;;9.70;99.90;;;;;;5034678;28;20443;-63
2024/02/03 02:29:14;;;;;;;6.17;3.50;;;9.70;99.90;;;;;;5034140;28;21023;-64
2024/02/03 02:31:41;;;;;;;5.97;4.40;;;9.70;99.90;;;;;;5034749;28;20480;-66
2024/02/03 02:34:08;;;;;;;7.13;5.10;;;9.70;99.90;;;;;;5034286;28;20448;-65
2024/02/03 02:36:35;;;;;;;7.27;4.63;;;9.70;99.90;;;;;;5030946;28;20480;-65
2024/02/03 02:39:05;;;;;;;12.20;5.37;;;9.70;99.90;;;;;;5038149;28;20491;-65
2024/02/03 02:41:32;;;;;;;4.73;3.20;;;9.70;99.90;;;;;;5034564;28;20447;-64
2024/02/03 02:43:58;;;;;;;6.47;4.47;;;9.80;99.90;;;;;;5034151;28;20518;-64
2024/02/03 02:46:27;;;;;;;8.20;5.50;;;9.70;99.90;;;;;;5033993;28;20517;-65
2024/02/03 02:48:54;;;;;;;8.07;4.77;;;9.80;99.90;;;;;;5023095;28;20964;-65
2024/02/03 02:51:21;;;;;;;8.03;5.47;;;9.90;99.90;;;;;;5025171;28;20554;-64
2024/02/03 02:53:49;;;;;;;6.73;4.67;;;9.90;99.90;;;;;;5049759;28;20459;-64
2024/02/03 02:56:17;;;;;;;8.00;5.80;;;9.90;99.90;;;;;;5053237;28;20618;-65
2024/02/03 02:58:44;;;;;;;10.73;5.63;;;9.90;99.90;;;;;;5053882;28;20544;-64
2024/02/03 03:01:11;;;;;;;8.57;5.43;;;9.90;99.90;;;;;;5054220;28;20571;-64
2024/02/03 03:03:38;;;;;;;10.37;5.80;;;9.90;99.90;;;;;;5053271;28;20499;-65
2024/02/03 03:06:05;;;;;;;10.30;6.37;;;9.90;99.90;;;;;;5031506;28;20460;-64
2024/02/03 03:08:32;;;;;;;7.10;5.00;;;9.90;99.90;;;;;;5033386;28;20483;-65
2024/02/03 03:10:59;;;;;;;8.40;5.70;;;10.00;99.90;;;;;;5034182;28;20435;-64
2024/02/03 03:13:28;;;;;;;8.00;5.67;;;10.00;99.90;;;;;;5034045;28;20453;-61
2024/02/03 03:15:54;;;;;;;9.40;6.10;;;10.00;99.90;;;;;;5033567;28;20956;-64
2024/02/03 03:18:21;;;;;;;8.50;5.83;;;10.00;99.90;;;;;;5033658;28;20554;-63
2024/02/03 03:20:48;;;;;;;10.67;6.50;;;10.00;99.90;;;;;;5033684;28;20843;-62
2024/02/03 03:23:15;;;;;;;10.30;5.80;;;10.00;99.90;;;;;;5033847;28;20503;-64
2024/02/03 03:25:42;;;;;;;10.60;8.00;;;10.10;99.90;;;;;;5033852;28;20507;-64
2024/02/03 03:28:09;;;;;;;9.50;6.77;;;10.10;99.90;;;;;;5033981;28;20460;-65
2024/02/03 03:30:37;;;;;;;9.77;5.77;;;10.10;99.90;;;;;;5031377;28;20495;-63
2024/02/03 03:33:04;;;;;;;8.97;6.93;;;10.10;99.90;;;;;;5033847;28;20455;-64
2024/02/03 03:35:31;;;;;;;8.97;5.47;;;10.10;99.90;;;;;;5033726;28;20568;-64
2024/02/03 03:37:58;;;;;;;9.93;6.93;;;10.10;99.90;;;;;;5033932;28;20540;-66
2024/02/03 03:40:25;;;;;;;9.10;6.40;;;10.10;99.90;;;;;;5033676;28;20531;-65
2024/02/03 03:42:55;;;;;;;10.20;6.33;;;10.10;99.90;;;;;;5033480;28;20560;-64
2024/02/03 03:45:22;;;;;;;14.37;6.90;;;10.10;99.90;;;;;;5033643;28;20532;-63
2024/02/03 03:47:50;;;;;;;11.40;6.20;;;10.10;99.90;;;;;;5034402;28;20441;-67
2024/02/03 03:50:18;;;;;;;8.03;4.60;;;10.10;99.90;;;;;;5034529;28;20468;-64
2024/02/03 03:52:45;;;;;;;11.43;7.47;;;10.10;99.90;;;;;;5033712;28;20456;-66
2024/02/03 03:55:12;;;;;;;13.03;7.90;;;10.10;99.90;;;;;;5033626;28;20482;-64
2024/02/03 03:57:39;;;;;;;10.27;6.43;;;10.00;99.90;;;;;;5033851;28;20528;-67
2024/02/03 04:00:09;;;;;;;12.00;7.70;;;10.00;99.90;;;;;;5033904;28;20579;-65
2024/02/03 04:02:36;;;;;;;10.57;6.70;;;10.10;99.90;;;;;;5033807;28;20572;-65
2024/02/03 04:05:05;;;;;;;9.17;5.73;;;10.00;99.90;;;;;;5033575;28;20441;-66
2024/02/03 04:07:32;;;;;;;9.30;6.60;;;10.00;99.90;;;;;;5034587;28;20486;-65
2024/02/03 04:09:59;;;;;;;12.57;7.10;;;10.00;99.90;;;;;;5037391;28;20955;-65
2024/02/03 04:12:26;;;;;;;8.90;6.73;;;10.00;99.90;;;;;;5037292;28;20447;-64
2024/02/03 04:14:53;;;;;;;9.40;6.70;;;10.10;99.90;;;;;;5037197;28;20452;-64
2024/02/03 04:17:20;;;;;;;9.17;6.10;;;10.00;99.90;;;;;;5037039;28;20978;-65
2024/02/03 04:19:47;;;;;;;9.83;6.27;;;10.10;99.90;;;;;;5036774;28;20989;-63
2024/02/03 04:22:16;;;;;;;12.53;8.10;;;10.10;99.90;;;;;;5036738;28;21032;-67
2024/02/03 04:24:43;;;;;;;11.07;6.77;;;10.10;99.90;;;;;;5036778;28;20525;-65
2024/02/03 04:27:09;;;;;;;11.47;6.87;;;10.10;99.90;;;;;;5037036;28;20530;-64
2024/02/03 04:29:36;;;;;;;11.83;6.37;;;10.20;99.90;;;;;;5036890;28;20555;-64
2024/02/03 04:32:04;;;;;;;10.80;5.77;;;10.20;99.90;;;;;;5035427;28;20468;-64
2024/02/03 04:34:30;;;;;;;12.67;7.20;;;10.20;99.90;;;;;;5035474;28;21107;-65
2024/02/03 04:36:57;;;;;;;10.17;7.50;;;10.30;99.90;;;;;;5036009;28;20472;-63
2024/02/03 04:39:25;;;;;;;9.63;6.63;;;10.30;99.90;;;;;;5036136;28;20871;-62
2024/02/03 04:41:52;;;;;;;7.80;5.83;;;10.30;99.90;;;;;;5036100;28;20527;-65
2024/02/03 04:44:19;;;;;;;10.87;6.50;;;10.30;99.90;;;;;;5036267;28;20924;-65
2024/02/03 04:46:46;;;;;;;10.77;6.63;;;10.30;99.90;;;;;;5035696;28;20534;-64
2024/02/03 04:49:13;;;;;;;11.30;7.00;;;10.40;99.90;;;;;;5036224;28;20568;-65
2024/02/03 04:51:40;;;;;;;9.53;6.33;;;10.40;99.90;;;;;;5036614;28;20540;-65
2024/02/03 04:54:07;;;;;;;12.00;7.10;;;10.40;99.90;;;;;;5036179;28;20963;-62
2024/02/03 04:56:35;;;;;;;9.30;6.60;;;10.40;99.90;;;;;;5036142;28;20555;-64
2024/02/03 04:59:02;;;;;;;14.00;5.77;;;10.40;99.90;;;;;;5036134;28;20573;-64
2024/02/03 05:01:29;;;;;;;10.67;7.47;;;10.50;99.90;;;;;;5022368;28;20473;-68
2024/02/03 05:03:59;;;;;;;11.90;6.30;;;10.50;99.90;;;;;;5018055;28;20479;-65
2024/02/03 05:06:25;;;;;;;10.63;6.47;;;10.50;99.90;;;;;;5016883;28;20540;-65
2024/02/03 05:08:54;;;;;;;13.20;6.87;;;10.50;99.90;;;;;;5025666;28;20542;-65
2024/02/03 05:11:21;;;;;;;7.43;5.07;;;10.50;99.90;;;;;;5026641;28;20930;-65
2024/02/03 05:13:49;;;;;;;10.43;6.37;;;10.50;99.90;;;;;;5016421;28;20549;-66
2024/02/03 05:16:16;;;;;;;10.43;5.90;;;10.50;99.90;;;;;;5016281;28;20479;-64
2024/02/03 05:18:42;;;;;;;9.67;5.70;;;10.50;99.90;;;;;;5020752;28;20516;-63
2024/02/03 05:21:09;;;;;;;9.50;6.47;;;10.50;99.90;;;;;;5029677;28;20632;-64
2024/02/03 05:23:36;;;;;;;12.57;6.43;;;10.50;99.90;;;;;;5029618;28;20559;-64
2024/02/03 05:26:04;;;;;;;10.93;4.80;;;10.50;99.90;;;;;;5036035;28;20491;-65
2024/02/03 05:28:30;;;;;;;9.40;6.50;;;10.60;99.90;;;;;;5016718;28;20537;-63
2024/02/03 05:30:59;;;;;;;8.80;6.37;;;10.60;99.90;;;;;;5016012;28;20605;-65
2024/02/03 05:33:25;;;;;;;9.67;6.20;;;10.60;99.90;;;;;;5015682;28;20489;-65
2024/02/03 05:35:52;;;;;;;11.93;6.70;;;10.60;99.90;;;;;;5015591;28;20548;-66
2024/02/03 05:38:20;;;;;;;9.60;6.60;;;10.60;99.90;;;;;;5015948;28;20446;-66
2024/02/03 05:40:46;;;;;;;8.83;6.23;;;10.50;99.90;;;;;;5015613;28;20496;-64
2024/02/03 05:43:13;;;;;;;9.37;6.23;;;10.50;99.90;;;;;;5016047;28;20451;-64
2024/02/03 05:45:40;;;;;;;9.73;5.47;;;10.50;99.90;;;;;;5024120;28;20488;-65
2024/02/03 05:48:09;;;;;;;10.03;6.30;;;10.50;99.90;;;;;;5030735;28;20448;-63
2024/02/03 05:50:35;;;;;;;7.70;5.47;;;10.50;99.90;;;;;;5020113;28;20528;-66
2024/02/03 05:53:02;;;;;;;11.43;5.60;;;10.50;99.90;;;;;;5035164;28;20786;-64
2024/02/03 05:55:29;;;;;;;9.00;5.67;;;10.60;99.90;;;;;;5029714;28;20501;-66
2024/02/03 05:57:56;;;;;;;8.63;4.87;;;10.60;99.90;;;;;;5025095;28;20477;-64
2024/02/03 06:00:23;;;;;;;8.80;5.50;;;10.60;99.90;;;;;;5034345;28;20480;-66
2024/02/03 06:02:50;;;;;;;11.27;6.20;;;10.60;99.90;;;;;;5020089;28;21022;-63
2024/02/03 06:05:19;;;;;;;10.17;6.20;;;10.50;99.90;;;;;;5022006;28;20897;-65
2024/02/03 06:07:45;;;;;;;6.50;4.87;;;10.60;99.90;;;;;;5019280;28;20445;-65
2024/02/03 06:10:12;;;;;;;6.70;5.30;;;10.50;99.90;;;;;;5019440;28;20479;-68
2024/02/03 06:12:39;;;;;;;6.30;4.30;;;10.60;99.90;;;;;;5031619;28;20540;-67
2024/02/03 06:15:07;;;;;;;8.00;4.77;;;10.60;99.90;;;;;;5016195;28;20457;-65
2024/02/03 06:17:33;;;;;;;10.53;4.63;;;10.60;99.90;;;;;;5019438;28;20542;-62
2024/02/03 06:20:00;;;;;;;8.10;4.83;;;10.60;99.90;;;;;;5032390;28;20578;-68
2024/02/03 06:22:29;;;;;;;9.97;6.43;;;10.60;99.90;;;;;;5017165;28;20604;-65
2024/02/03 06:24:56;;;;;;;6.70;4.50;;;10.60;99.90;;;;;;5035185;28;20527;-65
2024/02/03 06:27:23;;;;;;;5.20;3.47;;;10.60;99.90;;;;;;5030934;28;20477;-64
2024/02/03 06:29:50;;;;;;;5.13;4.23;;;10.60;99.90;;;;;;5020904;28;20468;-62
2024/02/03 06:32:17;;;;;;;7.20;4.67;;;10.60;99.90;;;;;;5033228;28;20445;-65
2024/02/03 06:34:43;;;;;;;7.90;5.47;;;10.60;99.90;;;;;;5030297;28;20492;-64
2024/02/03 06:37:11;;;;;;;6.00;4.33;;;10.60;99.90;;;;;;5033780;28;20535;-61
2024/02/03 06:39:40;;;;;;;5.90;3.67;;;10.60;99.90;;;;;;5023211;28;20576;-65
2024/02/03 06:42:07;;;;;;;6.70;4.53;;;10.60;99.90;;;;;;5014599;28;20525;-64
2024/02/03 06:44:34;;;;;;;5.57;4.03;;;10.60;99.90;;;;;;5015627;28;20449;-66
2024/02/03 06:47:00;;;;;;;5.17;4.00;;;10.60;99.90;;;;;;5034077;28;20547;-64
2024/02/03 06:49:27;;;;;;;5.83;3.90;;;10.50;99.90;;;;;;5034288;28;21112;-64
2024/02/03 06:51:54;;;;;;;6.70;4.43;;;10.50;99.90;;;;;;5034233;28;20518;-64
2024/02/03 06:54:22;;;;;;;8.40;5.10;;;10.50;99.90;;;;;;5034151;28;20433;-64
2024/02/03 06:56:50;;;;;;;9.23;5.97;;;10.50;99.90;;;;;;5030077;28;20996;-62
2024/02/03 06:59:17;;;;;;;7.43;4.90;;;10.50;99.90;;;;;;5034339;28;20875;-66
2024/02/03 07:01:44;;;;;;;7.37;5.40;;;10.50;99.90;;;;;;5021684;28;21092;-66
2024/02/03 07:04:10;;;;;;;9.30;6.47;;;10.40;99.90;;;;;;5014213;28;20889;-64
2024/02/03 07:06:37;;;;;;;7.20;4.43;;;10.50;99.90;;;;;;5023081;28;20542;-65
2024/02/03 07:09:04;;;;;;;9.43;4.90;;;10.50;99.90;;;;;;5033456;28;20547;-64
2024/02/03 07:11:31;;;;;;;7.33;4.87;;;10.50;99.90;;;;;;5033781;28;20495;-65
2024/02/03 07:13:59;;;;;;;10.03;6.50;;;10.40;99.90;;;;;;5033011;28;20448;-64
2024/02/03 07:16:27;;;;;;;8.07;5.47;;;10.40;99.90;;;;;;5034009;28;20440;-65
2024/02/03 07:18:53;;;;;;;8.53;5.63;;;10.40;99.90;;;;;;5033641;28;20464;-65
2024/02/03 07:21:20;;;;;;;9.47;5.80;;;10.40;99.90;;;;;;5033307;28;20962;-64
2024/02/03 07:23:47;;;;;;;10.40;5.00;;;10.30;99.90;;;;;;5032911;28;20949;-67
2024/02/03 07:26:14;;;;;;;6.47;4.60;;;10.30;99.90;;;;;;5029620;28;20547;-64
2024/02/03 07:28:41;;;;;;;9.63;5.33;;;10.30;99.90;;;;;;5028929;28;20541;-66
2024/02/03 07:31:09;;;;;;;11.90;6.00;;;10.30;99.90;;;;;;5029923;28;20488;-66
2024/02/03 07:33:36;;;;;;;9.40;6.27;;;10.30;99.90;;;;;;5031178;28;21148;-64
2024/02/03 07:36:03;;;;;;;8.53;5.87;;;10.30;99.90;;;;;;5033295;28;20870;-67
2024/02/03 07:38:30;;;;;;;11.50;6.27;;;10.30;99.90;;;;;;5034318;28;20870;-65
2024/02/03 07:40:57;;;;;;;8.10;5.87;;;10.30;99.90;;;;;;5034101;28;20516;-65
2024/02/03 07:43:23;;;;;;;7.43;5.63;;;10.30;99.90;;;;;;5037363;28;20456;-65
2024/02/03 07:45:50;;;;;;;9.03;5.50;;;10.30;99.90;;;;;;5037162;28;20512;-63
2024/02/03 07:48:18;;;;;;;6.73;4.67;;;10.30;99.90;;;;;;5037704;28;20479;-64
2024/02/03 07:50:45;;;;;;;7.60;5.47;;;10.40;99.90;;;;;;5038496;28;20485;-64
2024/02/03 07:53:12;;;;;;;6.70;5.03;;;10.40;99.90;;;;;;5038079;28;20528;-63
2024/02/03 07:55:39;;;;;;;8.80;6.30;;;10.40;99.90;;;;;;5038255;28;20864;-63
2024/02/03 07:58:06;;;;;;;9.43;5.60;;;10.30;99.90;;;;;;5038013;28;20462;-66
2024/02/03 08:00:33;;;;;;;10.57;5.40;;;10.30;99.90;;;;;;5038369;28;21053;-65
2024/02/03 08:03:00;;;;;;;7.60;4.60;;;10.30;99.90;;;;;;5038229;28;20472;-63
2024/02/03 08:05:29;;;;;;;6.00;3.80;;;10.30;99.90;;;;;;5038065;28;20445;-64
2024/02/03 08:07:55;;;;;;;8.57;4.20;;;10.30;99.90;;;;;;5038132;28;20539;-64
2024/02/03 08:10:23;;;;;;;6.50;3.83;;;10.20;99.90;;;;;;5038071;28;20531;-66
2024/02/03 08:12:51;;;;;;;7.83;5.00;;;10.20;99.90;;;;;;5038083;28;20471;-66
2024/02/03 08:15:19;;;;;;;5.20;3.90;;;10.20;99.90;;;;;;5037988;28;20527;-66
2024/02/03 08:17:46;;;;;;;7.80;3.87;;;10.20;99.90;;;;;;5037747;28;20479;-65
2024/02/03 08:20:13;;;;;;;7.70;5.10;;;10.20;99.90;;;;;;5037807;28;20480;-65
2024/02/03 08:22:41;;;;;;;8.40;4.83;;;10.30;99.90;;;;;;5037922;28;20436;-65
2024/02/03 08:25:08;;;;;;;7.33;4.73;;;10.30;99.90;;;;;;5037515;28;20484;-66
2024/02/03 08:27:35;;;;;;;7.87;5.40;;;10.30;99.90;;;;;;5038134;28;20569;-65
2024/02/03 08:30:03;;;;;;;8.03;5.20;;;10.30;99.90;;;;;;5037191;28;20523;-65
2024/02/03 08:32:30;;;;;;;6.60;4.00;;;10.30;99.90;;;;;;5037542;28;20535;-66
2024/02/03 08:34:57;;;;;;;9.33;5.33;;;10.30;99.90;;;;;;5037503;28;20835;-64
2024/02/03 08:37:24;;;;;;;9.70;5.57;;;10.30;99.90;;;;;;5037541;28;20543;-65
2024/02/03 08:39:52;;;;;;;6.00;3.90;;;10.30;99.90;;;;;;5037000;28;20484;-61
2024/02/03 08:42:19;;;;;;;8.60;5.37;;;10.30;99.90;;;;;;5037211;28;20939;-67
2024/02/03 08:44:46;;;;;;;7.27;5.00;;;10.20;99.90;;;;;;5037127;28;20534;-66
2024/02/03 08:47:13;;;;;;;6.73;4.70;;;10.20;99.90;;;;;;5037599;28;20524;-63
2024/02/03 08:49:50;;;;;;;8.00;5.30;;;10.30;99.90;;;;;;5038084;28;20464;-65
2024/02/03 08:52:17;;;;;;;8.40;5.37;;;10.30;99.90;;;;;;5036744;28;20474;-65
2024/02/03 08:54:44;;;;;;;5.90;4.30;;;10.30;99.90;;;;;;5036359;28;21041;-66
2024/02/03 08:57:13;;;;;;;7.03;4.40;;;10.30;99.90;;;;;;5037260;28;20527;-66
2024/02/03 08:59:40;;;;;;;7.73;3.90;;;10.30;99.90;;;;;;5036811;28;20488;-66
2024/02/03 09:02:07;;;;;;;6.50;3.90;;;10.30;99.90;;;;;;5036750;28;20485;-67
2024/02/03 09:04:34;;;;;;;6.90;4.60;;;10.40;99.90;;;;;;5036630;28;20498;-66
2024/02/03 09:07:01;;;;;;;6.00;4.30;;;10.40;99.90;;;;;;5037154;28;20472;-64
2024/02/03 09:09:27;;;;;;;6.60;3.73;;;10.50;99.90;;;;;;5036582;28;20441;-66
2024/02/03 09:11:54;;;;;;;6.83;4.50;;;10.50;99.90;;;;;;5036786;28;20500;-66
2024/02/03 09:14:23;;;;;;;7.23;4.73;;;10.50;99.90;;;;;;5037880;28;20445;-64
2024/02/03 09:16:49;;;;;;;7.33;4.50;;;10.50;99.90;;;;;;5036779;28;20507;-66
2024/02/03 09:19:16;;;;;;;4.77;2.97;;;10.50;99.90;;;;;;5036352;28;20499;-66
2024/02/03 09:21:43;;;;;;;6.17;3.80;;;10.50;99.90;;;;;;5036340;28;20483;-64
2024/02/03 09:24:10;;;;;;;4.97;3.17;;;10.50;99.90;;;;;;5036304;28;20465;-65
2024/02/03 09:26:39;;;;;;;6.00;3.80;;;10.60;99.90;;;;;;5036293;28;20528;-64
2024/02/03 09:29:07;;;;;;;5.27;4.20;;;10.60;99.90;;;;;;5036302;28;20482;-65
2024/02/03 09:31:35;;;;;;;4.73;3.50;;;10.50;99.90;;;;;;5036489;28;20448;-65
2024/02/03 09:34:03;;;;;;;6.57;4.27;;;10.50;99.90;;;;;;5037012;28;20552;-65
2024/02/03 09:36:30;;;;;;;7.10;3.60;;;10.60;99.90;;;;;;5036699;28;20448;-62
2024/02/03 09:38:57;;;;;;;6.30;4.17;;;10.50;99.90;;;;;;5036294;28;20551;-64
2024/02/03 09:41:25;;;;;;;6.07;3.73;;;10.60;99.90;;;;;;5036306;28;20527;-64
2024/02/03 09:43:53;;;;;;;6.30;3.80;;;10.60;99.90;;;;;;5035865;28;20458;-63
2024/02/03 09:46:20;;;;;;;8.03;3.93;;;10.60;99.90;;;;;;5036041;28;20425;-62
2024/02/03 09:48:48;;;;;;;6.67;3.83;;;10.70;99.90;;;;;;5036721;28;20544;-63
2024/02/03 09:51:15;;;;;;;4.83;3.20;;;10.70;99.90;;;;;;5036189;28;20844;-63
2024/02/03 09:53:44;;;;;;;4.23;3.03;;;10.70;99.90;;;;;;5036152;28;20539;-62
2024/02/03 09:56:11;;;;;;;6.33;3.63;;;10.70;99.90;;;;;;5035803;28;21010;-63
2024/02/03 09:58:38;;;;;;;4.20;2.43;;;10.70;99.90;;;;;;5035709;28;20441;-63
2024/02/03 10:01:05;;;;;;;3.50;2.90;;;10.70;99.90;;;;;;5036765;28;20575;-63
2024/02/03 10:03:33;;;;;;;6.27;3.70;;;10.70;99.90;;;;;;5036408;28;20837;-64
2024/02/03 10:06:03;;;;;;;5.63;3.33;;;10.70;99.90;;;;;;5035279;28;20504;-65
2024/02/03 10:08:30;;;;;;;3.87;2.90;;;10.80;99.90;;;;;;5035380;28;20537;-64
2024/02/03 10:10:57;;;;;;;4.20;3.40;;;10.80;99.90;;;;;;5035646;28;20556;-64
2024/02/03 10:13:25;;;;;;;5.43;3.33;;;10.80;99.90;;;;;;5035858;28;20451;-63
2024/02/03 10:16:00;;;;;;;3.17;2.70;;;10.70;99.90;;;;;;5035520;28;20480;-64
2024/02/03 10:18:27;;;;;;;6.23;3.03;;;10.80;99.90;;;;;;5035238;28;20456;-64
2024/02/03 10:20:54;;;;;;;4.63;3.23;;;10.80;99.90;;;;;;5035099;28;20845;-64
2024/02/03 10:23:22;;;;;;;4.93;2.80;;;10.80;99.90;;;;;;5035208;28;20500;-63
2024/02/03 10:25:57;;;;;;;4.43;3.20;;;10.80;99.90;;;;;;5035569;28;20527;-63
2024/02/03 10:28:24;;;;;;;5.10;2.80;;;10.90;99.90;;;;;;5035496;28;20577;-64
2024/02/03 10:30:52;;;;;;;4.73;3.17;;;10.90;99.90;;;;;;5035481;28;20502;-63
2024/02/03 10:33:19;;;;;;;4.13;2.70;;;11.00;99.90;;;;;;5035073;28;20552;-60
2024/02/03 10:35:47;;;;;;;4.43;3.07;;;11.00;99.90;;;;;;5035594;28;20432;-64
2024/02/03 10:38:14;;;;;;;21.03;8.43;;;11.00;99.90;;;;;;5035400;28;20555;-66
2024/02/03 10:40:42;;;;;;;16.07;6.97;;;11.10;99.90;;;;;;5035063;28;20561;-66
2024/02/03 10:43:17;;;;;;;11.93;5.53;;;11.50;99.90;;;;;;5035177;28;20543;-65
2024/02/03 10:45:47;;;;;;;3.87;3.47;;;11.70;99.90;;;;;;5036113;28;20480;-62
2024/02/03 10:48:20;;;;;;;5.80;2.90;;;11.50;99.90;;;;;;5035154;28;20487;-64
2024/02/03 10:50:50;;;;;;;4.20;2.90;;;11.40;99.90;;;;;;5034949;28;20496;-67
2024/02/03 10:53:22;;;;;;;4.10;2.73;;;11.30;99.90;;;;;;5035103;28;20471;-60
2024/02/03 10:55:55;;;;;;;3.90;2.67;;;11.20;99.90;;;;;;5035183;28;20422;-63
2024/02/03 10:58:25;;;;;;;3.70;2.30;;;11.20;99.90;;;;;;5035842;28;20429;-62
2024/02/03 11:00:53;;;;;;;3.53;2.60;;;11.20;99.90;;;;;;5037056;28;20489;-64
2024/02/03 11:03:21;;;;;;;3.60;3.30;;;11.10;99.90;;;;;;5034831;28;20472;-62
2024/02/03 11:05:52;;;;;;;4.33;2.63;;;11.10;99.90;;;;;;5034902;28;20541;-62
2024/02/03 11:08:20;;;;;;;3.67;2.20;;;11.10;99.90;;;;;;5034879;28;20547;-61
2024/02/03 11:10:51;;;;;;;3.57;2.93;;;11.10;99.90;;;;;;5034873;28;20476;-62
2024/02/03 11:13:21;;;;;;;4.23;3.60;;;11.10;99.90;;;;;;5034797;28;20538;-63
2024/02/03 11:15:55;;;;;;;4.00;3.00;;;11.10;99.90;;;;;;5034451;28;20444;-56
2024/02/03 11:18:22;;;;;;;4.17;2.87;;;11.10;99.90;;;;;;5034451;28;20551;-63
2024/02/03 11:20:49;;;;;;;3.73;2.90;;;11.20;99.90;;;;;;5034311;28;20983;-62
2024/02/03 11:23:16;;;;;;;4.37;2.90;;;11.20;99.90;;;;;;5035292;28;20834;-62
2024/02/03 11:25:44;;;;;;;5.23;3.50;;;11.20;99.90;;;;;;5034368;28;20530;-64
2024/02/03 11:28:13;;;;;;;4.50;3.23;;;11.20;99.90;;;;;;5034697;28;20469;-64
2024/02/03 11:30:39;;;;;;;3.63;3.03;;;11.30;99.90;;;;;;5034717;28;20469;-62
2024/02/03 11:33:07;;;;;;;5.17;3.47;;;11.30;99.90;;;;;;5034243;28;20560;-61
2024/02/03 11:35:34;;;;;;;5.73;3.33;;;11.40;99.90;;;;;;5034642;28;20487;-63
2024/02/03 11:38:09;;;;;;;3.40;3.00;;;11.30;99.90;;;;;;5034288;28;20447;-63
2024/02/03 11:40:43;;;;;;;6.07;2.70;;;11.30;99.90;;;;;;5034539;28;20476;-61
2024/02/03 11:43:13;;;;;;;4.17;3.10;;;11.30;99.90;;;;;;5034568;28;20934;-63
2024/02/03 11:45:45;;;;;;;4.70;3.17;;;11.30;99.90;;;;;;5034633;28;20469;-61
2024/02/03 11:48:13;;;;;;;4.40;3.17;;;11.30;99.90;;;;;;5034389;28;20463;-60
2024/02/03 11:50:40;;;;;;;4.80;2.27;;;11.30;99.90;;;;;;5034145;28;20546;-64
2024/02/03 11:53:07;;;;;;;3.27;2.70;;;11.30;99.90;;;;;;5034227;28;20762;-64
2024/02/03 11:55:35;;;;;;;4.20;2.77;;;11.30;99.90;;;;;;5035099;28;20452;-62
2024/02/03 11:58:02;;;;;;;3.70;2.50;;;11.30;99.90;;;;;;5034779;28;20542;-64
2024/02/03 12:00:30;;;;;;;4.17;2.63;;;11.20;99.90;;;;;;5034378;28;20429;-64
2024/02/03 12:02:57;;;;;;;4.17;2.97;;;11.10;99.90;;;;;;5034212;28;20445;-64
2024/02/03 12:05:24;;;;;;;5.80;3.37;;;11.10;99.90;;;;;;5033933;28;20570;-62
2024/02/03 12:07:51;;;;;;;4.07;2.80;;;11.10;99.90;;;;;;5034202;28;20452;-62
2024/02/03 12:10:18;;;;;;;4.73;3.60;;;11.10;99.90;;;;;;5034004;28;20436;-65
2024/02/03 12:12:46;;;;;;;4.40;3.20;;;11.20;99.90;;;;;;5034037;28;20445;-64
2024/02/03 12:15:13;;;;;;;4.63;3.13;;;11.20;99.90;;;;;;5033954;28;20483;-63
2024/02/03 12:17:42;;;;;;;4.00;3.00;;;11.20;99.90;;;;;;5034060;28;20464;-64
2024/02/03 12:20:24;;;;;;;6.00;3.50;;;11.20;99.90;;;;;;5034354;28;20507;-64
2024/02/03 12:22:52;;;;;;;5.90;4.00;;;11.20;99.90;;;;;;5033807;28;20522;-64
2024/02/03 12:25:19;;;;;;;6.20;3.40;;;11.20;99.90;;;;;;5033766;28;20468;-64
2024/02/03 12:27:46;;;;;;;4.97;3.50;;;11.20;99.90;;;;;;5034370;28;20444;-64
2024/02/03 12:30:17;;;;;;;4.20;3.30;;;11.20;99.90;;;;;;5038162;28;20440;-62
2024/02/03 12:32:46;;;;;;;5.00;3.40;;;11.30;99.90;;;;;;5038003;28;20438;-61
2024/02/03 12:35:14;;;;;;;4.00;3.00;;;11.30;99.90;;;;;;5037618;28;20529;-60
2024/02/03 12:37:41;;;;;;;5.63;3.60;;;11.30;99.90;;;;;;5037588;28;20551;-63
2024/02/03 12:40:09;;;;;;;5.57;3.97;;;11.20;99.90;;;;;;5037292;28;20464;-64
2024/02/03 12:42:37;;;;;;;4.80;2.90;;;11.20;99.90;;;;;;5037127;28;20575;-64
2024/02/03 12:45:05;;;;;;;6.00;3.97;;;11.20;99.90;;;;;;5037444;28;20530;-64
2024/02/03 12:47:32;;;;;;;3.60;3.03;;;11.10;99.90;;;;;;5037397;28;20475;-63
2024/02/03 12:50:01;;;;;;;5.53;3.70;;;11.00;99.90;;;;;;5037036;28;20539;-64